Aviation Digital Data Service (ADDS)

Output produced by METARs form (0051 UTC 06 December 2016)
found at http://aviationweather.gov/adds/metars/
 
KHYA 052320Z 0600/0624 29008KT P6SM FEW250 
     FM060600 30012G21KT P6SM SKC 
     FM061100 34012G21KT P6SM FEW250 
     FM061500 36009KT P6SM SCT250 
     FM062000 04006KT P6SM BKN150